Aérodrome :
LOGIN :

S'inscrire | Disclaimer

   EN    FR    IT 

 










Légende :    VFR   VFR Marginal   IFR   IFR Intensif   IFR Très Intensif
Visi : 
Plafond : 
>= 8 km
>= 3000ft
5 à 8 km
1000 à 3000 ft
1500m à 5 km
500 à 1000 ft
800 à 1500m
200 à 500 ft
< 800m
< 200 ft
Symboles :   Orages  Brouillard  Fortes neiges  Fortes précipitations  Vent > 20 kt
SIGMETs :   Divers  Orages  Givrage  Turbulence  Onde Orograph.  Cendres Volcan.







- Altitude de l'aérodrome : 1504 ft
- Code IATA : PNA


LEPP - Noain Pamplona

DERNIER METAR :
  • 251100Z 32009KT 280V350 9999 FEW020 BKN037 19/13 Q1022

METARs EXPIRÉS :
  • 251030Z 34009KT 290V010 9999 FEW018 BKN026 18/13 Q1023
  • 251000Z 33008KT 290V010 9999 FEW018 BKN029 17/13 Q1023
  • 250930Z 32008KT 290V350 9999 FEW018 BKN029 17/13 Q1022
  • 250900Z 32010KT 280V350 9999 FEW018 BKN029 17/13 Q1022
  • 250830Z 31008KT 280V340 9999 BKN030 18/12 Q1022

TAF TAF LEPP
Valide du 25 à 09h jusqu'au 26 à 09h UTC


250800Z 2509/2609 34009KT 9999 SCT025 TX21/2515Z TN09/2606Z
PROB30
TEMPO 2509/2518 3000 -RA BKN010
PROB40
TEMPO 2511/2518 34015G25KT
Pas de NOTAMs connus pour ce terrain.



MET'MAP, la Météo Aéronautique d'un coup d'oeil ! - Copyright ORBIFLY Décembre 2007 - Disclaimer

ORBIFLY MET'MAP TEAM :

Programmation & Développement : Alexandra Zaïnal
Conception & Développement : Baudouin d'Aumeries
Co-Programmation & Développement : Marc-Olivier Méhu
Soutien technique & logistique : Manuel Goepfert

Contact : metmap@orbifly.com




SOURCES & CREDITS :

   NOAA